Time,TemperatureF,DewpointF,PressureIn,WindDirection,WindDirectionDegrees,WindSpeedMPH,WindSpeedGustMPH,Humidity,HourlyPrecipIn,Conditions,Clouds,dailyrainin,SoftwareType,DateUTC
2013-11-14 00:00:00,77.6,75.4,29.89,North,0,0.0,1.0,93,0.00,,,0.00,VWS V14.01,2013-11-14 06:00:00,
2013-11-14 00:30:00,78.7,75.9,29.88,ENE,68,1.0,4.0,91,0.00,,,0.00,VWS V14.01,2013-11-14 06:30:00,
2013-11-14 01:00:00,78.1,75.9,29.88,NE,45,0.0,2.0,93,0.00,,,0.00,VWS V14.01,2013-11-14 07:00:00,
2013-11-14 01:30:00,77.6,75.7,29.87,NNW,338,0.0,1.0,94,0.00,,,0.00,VWS V14.01,2013-11-14 07:30:00,
2013-11-14 02:00:00,77.7,76.2,29.86,NNW,338,0.0,1.0,95,0.02,,,0.02,VWS V14.01,2013-11-14 08:00:00,
2013-11-14 02:30:00,77.4,76.2,29.85,NNW,338,0.0,1.0,96,0.02,,,0.02,VWS V14.01,2013-11-14 08:30:00,
2013-11-14 03:00:00,77.1,75.9,29.86,NW,315,0.0,1.0,96,0.02,,,0.02,VWS V14.01,2013-11-14 09:00:00,
2013-11-14 03:30:00,76.8,75.6,29.86,NW,315,0.0,1.0,96,0.00,,,0.02,VWS V14.01,2013-11-14 09:30:00,
2013-11-14 04:00:00,76.8,75.6,29.86,NW,315,0.0,0.0,96,0.00,,,0.02,VWS V14.01,2013-11-14 10:00:00,
2013-11-14 04:30:00,76.8,75.6,29.86,NW,315,0.0,1.0,96,0.00,,,0.02,VWS V14.01,2013-11-14 10:30:00,
2013-11-14 05:00:00,76.6,75.4,29.87,NW,315,0.0,1.0,96,0.00,,,0.02,VWS V14.01,2013-11-14 11:00:00,
2013-11-14 05:30:00,76.8,75.6,29.88,NW,315,0.0,0.0,96,0.00,,,0.02,VWS V14.01,2013-11-14 11:30:00,
2013-11-14 06:00:00,77.1,75.9,29.89,NW,315,0.0,3.0,96,0.00,,,0.02,VWS V14.01,2013-11-14 12:00:00,
2013-11-14 06:30:00,78.2,76.7,29.90,North,0,0.0,1.0,95,0.00,,,0.02,VWS V14.01,2013-11-14 12:30:00,
2013-11-14 07:00:00,80.6,77.7,29.91,NE,45,0.0,1.0,91,0.00,,,0.02,VWS V14.01,2013-11-14 13:00:00,
2013-11-14 07:30:00,82.6,78.7,29.92,ESE,112,0.0,2.0,88,0.00,,,0.02,VWS V14.01,2013-11-14 13:30:00,
2013-11-14 08:00:00,82.7,77.7,29.92,SSW,202,0.0,3.0,85,0.00,,,0.02,VWS V14.01,2013-11-14 14:00:00,
2013-11-14 08:30:00,83.4,77.3,29.93,ENE,68,2.0,8.0,82,0.00,,,0.02,VWS V14.01,2013-11-14 14:30:00,
2013-11-14 09:00:00,83.3,76.9,29.93,NE,45,4.0,10.0,81,0.00,,,0.02,VWS V14.01,2013-11-14 15:00:00,
2013-11-14 09:46:00,83.3,76.9,29.93,NE,45,4.0,10.0,81,0.00,,,0.02,VWS V14.01,2013-11-14 15:46:00,
2013-11-14 09:47:00,80.9,77.7,29.94,NNE,20,3.0,5.0,90,0.05,,,0.07,VWS V14.01,2013-11-14 15:47:00,
2013-11-14 09:52:00,81.0,77.1,29.94,NE,45,2.0,10.0,88,0.05,,,0.07,VWS V14.01,2013-11-14 15:52:00,
2013-11-14 09:57:00,81.1,77.2,29.94,NNE,26,2.0,10.0,88,0.05,,,0.07,VWS V14.01,2013-11-14 15:57:00,
2013-11-14 10:00:00,81.1,76.5,29.94,ENE,60,4.0,10.0,86,0.05,,,0.07,VWS V15.00,2013-11-14 16:00:00,
2013-11-14 10:02:00,81.0,76.4,29.94,ENE,65,5.0,9.0,86,0.05,,,0.07,VWS V14.01,2013-11-14 16:02:00,
2013-11-14 10:07:00,80.6,76.4,29.93,NE,49,2.0,9.0,87,0.05,,,0.07,VWS V14.01,2013-11-14 16:07:00,
2013-11-14 10:12:00,80.5,76.3,29.93,NE,34,2.0,9.0,87,0.05,,,0.07,VWS V14.01,2013-11-14 16:12:00,
2013-11-14 10:17:00,80.4,76.2,29.93,NE,54,3.0,9.0,87,0.05,,,0.07,VWS V14.01,2013-11-14 16:17:00,
2013-11-14 10:22:00,80.4,75.8,29.93,ENE,64,1.0,9.0,86,0.05,,,0.07,VWS V14.01,2013-11-14 16:22:00,
2013-11-14 10:27:00,80.5,75.2,29.93,ENE,61,0.0,9.0,84,0.05,,,0.07,VWS V14.01,2013-11-14 16:27:00,
2013-11-14 10:30:00,80.5,75.9,29.93,ENE,63,0.0,9.0,86,0.05,,,0.07,VWS V15.00,2013-11-14 16:30:00,
2013-11-14 10:32:00,80.5,75.6,29.93,WNW,300,0.0,2.0,85,0.00,,,0.07,VWS V14.01,2013-11-14 16:32:00,
2013-11-14 10:43:00,81.4,76.5,29.92,ESE,105,0.0,3.0,85,0.00,,,0.07,VWS V14.01,2013-11-14 16:43:00,
2013-11-14 10:48:00,81.5,76.9,29.92,ENE,63,1.0,3.0,86,0.00,,,0.07,VWS V14.01,2013-11-14 16:48:00,
2013-11-14 10:53:00,81.5,77.3,29.92,NNW,347,3.0,3.0,87,0.00,,,0.07,VWS V14.01,2013-11-14 16:53:00,
2013-11-14 10:58:00,81.4,76.8,29.92,ENE,60,2.0,4.0,86,0.00,,,0.07,VWS V14.01,2013-11-14 16:58:00,
2013-11-14 11:00:00,81.3,77.1,29.92,ENE,74,1.0,4.0,87,0.00,,,0.07,VWS V15.00,2013-11-14 17:00:00,
2013-11-14 11:03:00,81.3,77.1,29.92,NNE,20,0.0,3.0,87,0.00,,,0.07,VWS V14.01,2013-11-14 17:03:00,
2013-11-14 11:08:00,81.5,77.3,29.91,ENE,59,1.0,3.0,87,0.00,,,0.07,VWS V14.01,2013-11-14 17:08:00,
2013-11-14 11:13:00,81.3,77.1,29.91,ENE,74,0.0,4.0,87,0.00,,,0.07,VWS V14.01,2013-11-14 17:13:00,
2013-11-14 11:18:00,81.3,77.4,29.90,ENE,74,1.0,4.0,88,0.00,,,0.07,VWS V14.01,2013-11-14 17:18:00,
2013-11-14 11:23:00,81.4,77.2,29.90,NNW,331,2.0,5.0,87,0.00,,,0.07,VWS V14.01,2013-11-14 17:23:00,
2013-11-14 11:28:00,81.5,77.3,29.90,ENE,70,1.0,5.0,87,0.00,,,0.07,VWS V14.01,2013-11-14 17:28:00,
2013-11-14 11:30:00,81.5,77.3,29.90,ENE,63,3.0,5.0,87,0.00,,,0.07,VWS V15.00,2013-11-14 17:30:00,
2013-11-14 11:33:00,81.3,76.7,29.90,East,97,3.0,5.0,86,0.00,,,0.07,VWS V14.01,2013-11-14 17:33:00,
2013-11-14 11:38:00,81.2,77.0,29.90,East,95,3.0,5.0,87,0.00,,,0.07,VWS V14.01,2013-11-14 17:38:00,
2013-11-14 11:43:00,81.2,77.0,29.90,East,84,2.0,6.0,87,0.00,,,0.07,VWS V14.01,2013-11-14 17:43:00,
2013-11-14 11:48:00,81.4,76.8,29.89,ENE,61,3.0,6.0,86,0.00,,,0.07,VWS V14.01,2013-11-14 17:48:00,
2013-11-14 11:53:00,81.6,77.0,29.89,SE,128,3.0,6.0,86,0.00,,,0.07,VWS V14.01,2013-11-14 17:53:00,
2013-11-14 11:58:00,81.6,77.4,29.89,East,85,3.0,7.0,87,0.00,,,0.07,VWS V14.01,2013-11-14 17:58:00,
2013-11-14 12:00:00,81.6,77.0,29.89,SE,139,0.0,7.0,86,0.00,,,0.07,VWS V15.00,2013-11-14 18:00:00,
2013-11-14 12:30:00,82.7,77.4,29.86,SE,143,0.0,5.0,84,0.00,,,0.07,VWS V15.00,2013-11-14 18:30:00,
2013-11-14 13:00:00,82.7,77.0,29.85,North,6,0.0,4.0,83,0.00,,,0.07,VWS V15.00,2013-11-14 19:00:00,
2013-11-14 13:30:00,82.1,76.8,29.84,East,93,3.0,11.0,84,0.00,,,0.07,VWS V15.00,2013-11-14 19:30:00,
2013-11-14 14:00:00,82.5,76.4,29.83,East,86,4.0,9.0,82,0.00,,,0.07,VWS V15.00,2013-11-14 20:00:00,
2013-11-14 14:30:00,83.5,76.7,29.83,NE,53,8.0,11.0,80,0.00,,,0.07,VWS V15.00,2013-11-14 20:30:00,
2013-11-14 15:00:00,82.8,76.4,29.83,NE,41,4.0,12.0,81,0.00,,,0.07,VWS V15.00,2013-11-14 21:00:00,
2013-11-14 15:30:00,82.9,76.8,29.81,ENE,77,2.0,9.0,82,0.00,,,0.07,VWS V15.00,2013-11-14 21:30:00,
2013-11-14 16:00:00,82.2,76.9,29.82,East,94,3.0,10.0,84,0.00,,,0.07,VWS V15.00,2013-11-14 22:00:00,
2013-11-14 16:30:00,82.5,76.8,29.83,ENE,77,6.0,8.0,83,0.00,,,0.07,VWS V15.00,2013-11-14 22:30:00,
2013-11-14 17:00:00,81.9,77.3,29.84,East,79,2.0,8.0,86,0.00,,,0.07,VWS V15.00,2013-11-14 23:00:00,
2013-11-14 17:30:00,81.5,77.3,29.84,NE,53,2.0,9.0,87,0.00,,,0.07,VWS V15.00,2013-11-14 23:30:00,
2013-11-14 17:35:00,81.6,77.4,29.84,ENE,64,3.0,10.0,87,0.00,,,0.07,VWS V14.01,2013-11-14 23:35:00,
2013-11-14 17:40:00,81.5,76.9,29.84,NNE,24,7.0,12.0,86,0.00,,,0.07,VWS V14.01,2013-11-14 23:40:00,
2013-11-14 17:45:00,81.6,77.0,29.85,ESE,113,4.0,12.0,86,0.00,,,0.07,VWS V14.01,2013-11-14 23:45:00,
2013-11-14 17:50:00,81.2,77.0,29.84,NE,56,2.0,12.0,87,0.02,,,0.09,VWS V14.01,2013-11-14 23:50:00,
2013-11-14 17:55:00,80.7,76.8,29.84,NE,47,0.0,12.0,88,0.02,,,0.09,VWS V14.01,2013-11-14 23:55:00,
2013-11-14 18:00:00,80.3,77.1,29.84,NNE,27,0.0,12.0,90,0.02,,,0.09,VWS V14.01,2013-11-15 00:00:00,
2013-11-14 18:05:00,80.1,76.9,29.84,NE,56,1.0,4.0,90,0.02,,,0.09,VWS V14.01,2013-11-15 00:05:00,
2013-11-14 18:10:00,80.1,76.9,29.84,NE,41,0.0,6.0,90,0.02,,,0.09,VWS V14.01,2013-11-15 00:10:00,
2013-11-14 18:15:00,80.1,76.9,29.85,ENE,70,3.0,7.0,90,0.02,,,0.09,VWS V14.01,2013-11-15 00:15:00,
2013-11-14 18:20:00,80.3,76.8,29.85,NE,56,1.0,7.0,89,0.02,,,0.09,VWS V14.01,2013-11-15 00:20:00,
2013-11-14 18:25:00,80.3,76.8,29.85,ENE,60,1.0,7.0,89,0.02,,,0.09,VWS V14.01,2013-11-15 00:25:00,
2013-11-14 18:30:00,80.4,76.9,29.85,ENE,65,0.0,7.0,89,0.02,,,0.09,VWS V14.01,2013-11-15 00:30:00,
2013-11-14 18:35:00,80.4,76.9,29.85,ENE,69,1.0,1.0,89,0.02,,,0.09,VWS V14.01,2013-11-15 00:35:00,
2013-11-14 18:40:00,80.3,76.8,29.85,NE,47,0.0,4.0,89,0.02,,,0.09,VWS V14.01,2013-11-15 00:40:00,
2013-11-14 18:45:00,80.0,76.8,29.85,North,352,0.0,4.0,90,0.02,,,0.09,VWS V14.01,2013-11-15 00:45:00,
2013-11-14 18:50:00,79.9,77.0,29.85,North,354,0.0,4.0,91,0.02,,,0.09,VWS V14.01,2013-11-15 00:50:00,
2013-11-14 18:55:00,79.7,76.8,29.85,North,353,0.0,4.0,91,0.02,,,0.09,VWS V14.01,2013-11-15 00:55:00,
2013-11-14 19:00:00,79.6,77.1,29.85,NNE,12,1.0,4.0,92,0.02,,,0.09,VWS V14.01,2013-11-15 01:00:00,
2013-11-14 19:05:00,79.7,77.2,29.85,NNE,24,0.0,2.0,92,0.00,,,0.09,VWS V14.01,2013-11-15 01:05:00,
2013-11-14 19:10:00,79.7,77.2,29.86,NNW,341,0.0,3.0,92,0.00,,,0.09,VWS V14.01,2013-11-15 01:10:00,
2013-11-14 19:15:00,79.6,77.1,29.87,North,11,1.0,3.0,92,0.00,,,0.09,VWS V14.01,2013-11-15 01:15:00,
2013-11-14 19:20:00,79.5,77.0,29.87,NNE,15,0.0,4.0,92,0.00,,,0.09,VWS V14.01,2013-11-15 01:20:00,
2013-11-14 19:25:00,79.5,77.0,29.87,NNE,24,2.0,4.0,92,0.00,,,0.09,VWS V14.01,2013-11-15 01:25:00,
2013-11-14 19:30:00,79.7,77.2,29.88,NNE,16,0.0,4.0,92,0.00,,,0.09,VWS V14.01,2013-11-15 01:30:00,
2013-11-14 19:35:00,79.9,77.0,29.88,NNW,347,1.0,4.0,91,0.00,,,0.09,VWS V14.01,2013-11-15 01:35:00,
2013-11-14 19:40:00,80.1,76.9,29.88,NNE,30,0.0,4.0,90,0.00,,,0.09,VWS V14.01,2013-11-15 01:40:00,
2013-11-14 19:45:00,80.1,76.9,29.88,NE,49,2.0,5.0,90,0.00,,,0.09,VWS V14.01,2013-11-15 01:45:00,
2013-11-14 19:50:00,80.2,77.0,29.88,NE,37,4.0,5.0,90,0.00,,,0.09,VWS V14.01,2013-11-15 01:50:00,
2013-11-14 19:55:00,80.2,77.0,29.88,North,3,2.0,6.0,90,0.00,,,0.09,VWS V14.01,2013-11-15 01:55:00,
2013-11-14 20:00:00,80.1,76.9,29.89,ENE,65,2.0,6.0,90,0.00,,,0.09,VWS V14.01,2013-11-15 02:00:00,
2013-11-14 20:05:00,80.2,77.0,29.89,ENE,61,3.0,6.0,90,0.00,,,0.09,VWS V14.01,2013-11-15 02:05:00,
2013-11-14 20:10:00,80.3,77.1,29.89,NE,41,4.0,8.0,90,0.00,,,0.09,VWS V14.01,2013-11-15 02:10:00,
2013-11-14 20:15:00,80.5,77.3,29.89,NNE,27,3.0,8.0,90,0.00,,,0.09,VWS V14.01,2013-11-15 02:15:00,
2013-11-14 20:20:00,80.7,77.2,29.89,ENE,76,3.0,13.0,89,0.00,,,0.09,VWS V14.01,2013-11-15 02:20:00,
2013-11-14 20:25:00,81.0,77.1,29.89,ENE,60,3.0,13.0,88,0.00,,,0.09,VWS V14.01,2013-11-15 02:25:00,
2013-11-14 20:30:00,81.0,77.1,29.89,NE,34,2.0,13.0,88,0.00,,,0.09,VWS V14.01,2013-11-15 02:30:00,
2013-11-14 20:35:00,80.9,77.0,29.89,NE,41,1.0,5.0,88,0.00,,,0.09,VWS V14.01,2013-11-15 02:35:00,
2013-11-14 20:40:00,81.0,77.1,29.89,NE,46,3.0,8.0,88,0.00,,,0.09,VWS V14.01,2013-11-15 02:40:00,
2013-11-14 20:45:00,81.1,77.2,29.90,NE,56,2.0,8.0,88,0.00,,,0.09,VWS V14.01,2013-11-15 02:45:00,
2013-11-14 20:50:00,81.2,77.3,29.90,NE,36,9.0,9.0,88,0.00,,,0.09,VWS V14.01,2013-11-15 02:50:00,
2013-11-14 20:55:00,81.4,77.5,29.89,NNE,26,2.0,9.0,88,0.00,,,0.09,VWS V14.01,2013-11-15 02:55:00,
2013-11-14 21:00:00,81.4,77.5,29.89,NE,44,4.0,9.0,88,0.00,,,0.09,VWS V14.01,2013-11-15 03:00:00,
2013-11-14 21:05:00,81.4,77.5,29.89,NNE,33,4.0,11.0,88,0.00,,,0.09,VWS V14.01,2013-11-15 03:05:00,
2013-11-14 21:10:00,81.4,77.5,29.90,ENE,72,2.0,11.0,88,0.00,,,0.09,VWS V14.01,2013-11-15 03:10:00,
2013-11-14 21:15:00,81.4,77.5,29.90,ESE,105,2.0,11.0,88,0.00,,,0.09,VWS V14.01,2013-11-15 03:15:00,
2013-11-14 21:20:00,81.6,77.4,29.90,East,84,4.0,11.0,87,0.00,,,0.09,VWS V14.01,2013-11-15 03:20:00,
2013-11-14 21:25:00,81.5,77.3,29.90,NE,51,6.0,11.0,87,0.00,,,0.09,VWS V14.01,2013-11-15 03:25:00,
2013-11-14 21:30:00,81.6,77.4,29.90,ENE,65,6.0,11.0,87,0.00,,,0.09,VWS V14.01,2013-11-15 03:30:00,
2013-11-14 21:35:00,81.6,77.4,29.90,NE,53,4.0,8.0,87,0.00,,,0.09,VWS V14.01,2013-11-15 03:35:00,
2013-11-14 21:40:00,81.7,77.5,29.89,East,83,3.0,10.0,87,0.00,,,0.09,VWS V14.01,2013-11-15 03:40:00,
2013-11-14 21:45:00,81.7,77.5,29.89,NE,50,4.0,10.0,87,0.00,,,0.09,VWS V14.01,2013-11-15 03:45:00,
2013-11-14 21:50:00,81.8,77.6,29.89,East,82,0.0,13.0,87,0.00,,,0.09,VWS V14.01,2013-11-15 03:50:00,
2013-11-14 21:55:00,81.7,77.5,29.89,ENE,58,1.0,13.0,87,0.00,,,0.09,VWS V14.01,2013-11-15 03:55:00,
2013-11-14 22:00:00,81.7,77.5,29.89,ENE,67,4.0,13.0,87,0.00,,,0.09,VWS V14.01,2013-11-15 04:00:00,
2013-11-14 22:05:00,81.7,77.5,29.89,ENE,63,4.0,7.0,87,0.00,,,0.09,VWS V14.01,2013-11-15 04:05:00,
2013-11-14 22:10:00,81.6,77.4,29.90,NE,38,7.0,8.0,87,0.00,,,0.09,VWS V14.01,2013-11-15 04:10:00,
2013-11-14 22:15:00,81.7,77.5,29.90,East,84,1.0,8.0,87,0.00,,,0.09,VWS V14.01,2013-11-15 04:15:00,
2013-11-14 22:20:00,81.7,77.5,29.90,ENE,76,0.0,8.0,87,0.00,,,0.09,VWS V14.01,2013-11-15 04:20:00,
2013-11-14 22:25:00,81.7,77.5,29.90,NE,54,2.0,8.0,87,0.00,,,0.09,VWS V14.01,2013-11-15 04:25:00,
2013-11-14 22:30:00,81.6,77.4,29.90,ENE,68,2.0,8.0,87,0.00,,,0.09,VWS V14.01,2013-11-15 04:30:00,
2013-11-14 22:35:00,81.6,77.4,29.90,ENE,66,3.0,6.0,87,0.00,,,0.09,VWS V14.01,2013-11-15 04:35:00,
2013-11-14 22:40:00,81.6,77.4,29.89,NNE,21,1.0,8.0,87,0.00,,,0.09,VWS V14.01,2013-11-15 04:40:00,
2013-11-14 22:45:00,81.6,77.4,29.89,ENE,60,2.0,8.0,87,0.00,,,0.09,VWS V14.01,2013-11-15 04:45:00,
2013-11-14 22:50:00,81.6,77.4,29.89,ENE,62,1.0,8.0,87,0.00,,,0.09,VWS V14.01,2013-11-15 04:50:00,
2013-11-14 22:55:00,81.6,77.7,29.89,East,82,5.0,8.0,88,0.00,,,0.09,VWS V14.01,2013-11-15 04:55:00,
2013-11-14 23:00:00,81.6,77.4,29.88,NE,50,5.0,8.0,87,0.00,,,0.09,VWS V14.01,2013-11-15 05:00:00,
2013-11-14 23:01:00,81.6,77.4,29.88,NE,39,3.0,8.0,87,0.00,,,0.09,VWS V14.01,2013-11-15 05:01:00,
2013-11-14 23:02:00,81.6,77.4,29.88,NE,49,3.0,6.0,87,0.00,,,0.09,VWS V14.01,2013-11-15 05:02:00,
2013-11-14 23:07:00,81.7,77.8,29.88,ESE,117,4.0,7.0,88,0.00,,,0.09,VWS V14.01,2013-11-15 05:07:00,
2013-11-14 23:12:00,81.6,77.7,29.88,WNW,292,0.0,7.0,88,0.00,,,0.09,VWS V14.01,2013-11-15 05:12:00,
2013-11-14 23:17:00,81.4,77.5,29.88,NW,316,1.0,9.0,88,0.00,,,0.09,VWS V14.01,2013-11-15 05:17:00,
2013-11-14 23:21:00,81.2,77.7,29.88,East,89,3.0,9.0,89,0.00,,,0.09,VWS V14.01,2013-11-15 05:21:00,
2013-11-14 23:26:00,81.1,77.9,29.88,SW,224,2.0,9.0,90,0.00,,,0.09,VWS V14.01,2013-11-15 05:26:00,
2013-11-14 23:30:00,81.0,77.8,29.88,WNW,299,0.0,9.0,90,0.00,,,0.09,VWS V15.00,2013-11-15 05:30:00,
2013-11-14 23:31:00,81.0,77.8,29.88,West,277,0.0,1.0,90,0.00,,,0.09,VWS V14.01,2013-11-15 05:31:00,
2013-11-14 23:36:00,80.5,77.3,29.88,WSW,256,2.0,3.0,90,0.00,,,0.09,VWS V14.01,2013-11-15 05:36:00,
2013-11-14 23:41:00,80.2,77.3,29.88,WSW,255,3.0,5.0,91,0.00,,,0.09,VWS V14.01,2013-11-15 05:41:00,
2013-11-14 23:46:00,80.0,77.1,29.87,WSW,252,3.0,6.0,91,0.00,,,0.09,VWS V14.01,2013-11-15 05:46:00,
2013-11-14 23:51:00,79.9,77.0,29.87,West,269,0.0,6.0,91,0.00,,,0.09,VWS V14.01,2013-11-15 05:51:00,
2013-11-14 23:56:00,79.8,77.3,29.87,SW,233,2.0,6.0,92,0.00,,,0.09,VWS V14.01,2013-11-15 05:56:00,